Ana Sayfa
METAR-TAF:

METAR-TAF

Havaalanları :

Plainview, Teksas, Amerika Birleşik Devletleri

Enlem: 34-10-05N, Boylam: 101-43-02W, yükseklik: 1028 m

Güncel hava durumu gözlemi

Rapor saat 12:15 UTC de 20 dakika önce yapıldı.
Rüzgar batıdan 14 kt
Sıcaklık 11°C
Nem 54%
Basınç 1009 hPa
Görüş mesafesi: 16.1 km
Açık gökyüzü

METAR: KPVW 091215Z AUTO 28014KT 10SM CLR 11/02 A2981 RMK AO2 T01080018

Saat: 06:35 (12:35 UTC)

Tahmin

Rapor saat 11:25 UTC de 1 saat ve 10 dakika önce yapıldı.
Ayın 09'si saat 12 UTC'den ayın 10'si saat 12 UTC'ye kadar geçerli Tahmin
Rüzgar batıdan 15 kt
Görüş mesafesi: 10 km
20000 ft yükseklikte parçalı çok bulutlu
Ayın 09'si saat 1600 UTC'den
Rüzgar kuzeydan 13 kt
Görüş mesafesi: 10 km
20000 ft yükseklikte parçalı çok bulutlu
Ayın 10'si saat 0300 UTC'den
Rüzgar doğu/kuzeydoğudan 9 kt
Görüş mesafesi: 10 km
5000 ft yükseklikte çok bulutlu

TAF: KPVW 091125Z 0912/1012 27015KT P6SM BKN200 FM091600 35013KT P6SM BKN200 FM100300 06009KT P6SM OVC050

4.000'den fazla havaalanı için hava durumu gözlemleri ve tahminleri (METAR ve TAF raporları).

Kullanılabilir istasyonlar harita üzerinde sarı ve kırmızı noktalarla gösterilir.

İstasyonun adını görmek için fareyi noktanın üzerinde gezdirin.

Sonrasında hava gözlem ve tahminlerini görmek için tıklayın.

Haritayı değiştirmek için: yaklaştırmak için siyah artı işaretli yeşil düğmeye ve uzaklaştırmak için de eksi işaretli düğmeye hızla tıklayın; bitişik haritalar için yeşil okları kullanın.


METAR-TAF: